Time;durP1;ratioP1;P1;durP2;ratioP2;P2;SDS_P1;SDS_P2;PMS_P1;PMS_P2;Temp;Humidity;BMP_temperature;BMP_pressure;BME280_temperature;BME280_humidity;BME280_pressure;Samples;Min_cycle;Max_cycle;Signal;HPM_P1;HPM_P2
2023/01/20 00:00:50;;;;;;;;;;;;;;;14.65;50.91;101045.13;2099273;28;19940;-57
2023/01/20 00:01:52;;;;;;;;;;;;;;;14.65;50.62;101053.28;2114158;28;19983;-55
2023/01/20 00:02:54;;;;;;;;;;;;;;;14.65;50.67;101047.06;2114819;28;19934;-56
2023/01/20 00:03:58;;;;;;;;;;;;;;;14.65;50.70;101056.00;2114808;28;19974;-56
2023/01/20 00:05:01;;;;;;;;;;;;;;;14.65;50.88;101052.50;2113983;28;20382;-56
2023/01/20 00:06:03;;;;;;;;;;;;;;;14.66;50.71;101056.78;2115985;28;19927;-56
2023/01/20 00:07:05;;;;;;;;;;;;;;;14.64;50.57;101050.91;2115056;28;19924;-56
2023/01/20 00:08:07;;;;;;;;;;;;;;;14.64;50.58;101049.00;2115294;28;19923;-55
2023/01/20 00:09:13;;;;;;;;;;;;;;;14.64;50.80;101056.34;2115110;28;19928;-57
2023/01/20 00:10:15;;;;;;;;;;;;;;;14.64;50.69;101050.91;2115748;28;19927;-56
2023/01/20 00:11:18;;;;;;;;;;;;;;;14.64;50.80;101057.16;2114613;28;19931;-56
2023/01/20 00:12:20;;;;;;;;;;;;;;;14.64;50.70;101056.34;2114751;28;19939;-56
2023/01/20 00:13:22;;;;;;;;;;;;;;;14.63;50.63;101052.88;2114103;28;19938;-55
2023/01/20 00:14:24;;;;;;;;;;;;;;;14.64;50.68;101053.63;2113804;28;19932;-55
2023/01/20 00:15:27;;;;;;;;;;;;;;;14.63;50.73;101044.72;2114346;28;19931;-56
2023/01/20 00:16:30;;;;;;;;;;;;;;;14.63;50.87;101050.16;2114902;28;19928;-55
2023/01/20 00:17:32;;;;;;;;;;;;;;;14.63;50.59;101050.16;2114737;28;19927;-56
2023/01/20 00:18:35;;;;;;;;;;;;;;;14.63;50.74;101054.78;2113480;28;19928;-55
2023/01/20 00:19:38;;;;;;;;;;;;;;;14.63;50.71;101050.16;2113648;28;19935;-55
2023/01/20 00:20:41;;;;;;;;;;;;;;;14.63;50.91;101050.16;2115779;28;19928;-55
2023/01/20 00:21:42;;;;;;;;;;;;;;;14.63;50.87;101049.34;2105339;28;19928;-56
2023/01/20 00:22:45;;;;;;;;;;;;;;;14.63;50.95;101044.72;2105184;28;19927;-56
2023/01/20 00:23:47;;;;;;;;;;;;;;;14.63;50.87;101043.91;2115055;28;19927;-55
2023/01/20 00:24:49;;;;;;;;;;;;;;;14.63;50.80;101049.34;2114336;28;19928;-55
2023/01/20 00:25:51;;;;;;;;;;;;;;;14.62;50.85;101042.34;2114826;28;19985;-56
2023/01/20 00:26:54;;;;;;;;;;;;;;;14.62;50.92;101042.34;2114988;28;19935;-56
2023/01/20 00:27:55;;;;;;;;;;;;;;;14.62;50.71;101043.13;2113323;28;19932;-57
2023/01/20 00:28:58;;;;;;;;;;;;;;;14.61;50.75;101047.00;2115164;28;19934;-54
2023/01/20 00:29:59;;;;;;;;;;;;;;;14.62;50.90;101040.41;2105080;28;19938;-56
2023/01/20 00:31:12;;;;;;;;;;;;;;;14.61;50.93;101038.84;2105571;28;19928;-55
2023/01/20 00:32:14;;;;;;;;;;;;;;;14.62;50.85;101040.41;2115165;28;19935;-56
2023/01/20 00:33:16;;;;;;;;;;;;;;;14.61;50.69;101040.78;2114780;28;19939;-55
2023/01/20 00:34:19;;;;;;;;;;;;;;;14.61;50.92;101047.00;2113981;28;19935;-56
2023/01/20 00:35:22;;;;;;;;;;;;;;;14.61;50.74;101047.00;2114207;28;20401;-56
2023/01/20 00:36:25;;;;;;;;;;;;;;;14.61;50.57;101041.56;2115800;28;19931;-55
2023/01/20 00:37:27;;;;;;;;;;;;;;;14.61;51.01;101047.00;2113803;28;19949;-55
2023/01/20 00:38:29;;;;;;;;;;;;;;;14.61;50.97;101046.22;2113178;28;19935;-56
2023/01/20 00:39:31;;;;;;;;;;;;;;;14.60;50.77;101050.84;2114314;28;20275;-57
2023/01/20 00:40:34;;;;;;;;;;;;;;;14.61;50.92;101055.16;2115041;28;19928;-56
2023/01/20 00:41:35;;;;;;;;;;;;;;;14.60;50.86;101053.56;2115065;28;19958;-56
2023/01/20 00:42:38;;;;;;;;;;;;;;;14.61;50.82;101054.38;2114007;28;19939;-56
2023/01/20 00:43:39;;;;;;;;;;;;;;;14.61;50.99;101057.09;2114096;28;19934;-56
2023/01/20 00:44:42;;;;;;;;;;;;;;;14.61;50.72;101062.50;2114667;28;19927;-56
2023/01/20 00:45:43;;;;;;;;;;;;;;;14.60;50.93;101060.94;2115990;28;19927;-57
2023/01/20 00:46:46;;;;;;;;;;;;;;;14.60;50.88;101066.38;2113780;28;19928;-56
2023/01/20 00:47:47;;;;;;;;;;;;;;;14.60;51.05;101058.25;2114620;28;19927;-56
2023/01/20 00:48:50;;;;;;;;;;;;;;;14.61;50.75;101059.78;2114665;28;19928;-56
2023/01/20 00:49:52;;;;;;;;;;;;;;;14.59;50.79;101062.88;2114929;28;19939;-57
2023/01/20 00:50:55;;;;;;;;;;;;;;;14.60;51.09;101063.66;2114390;28;20045;-56
2023/01/20 00:51:58;;;;;;;;;;;;;;;14.60;50.92;101066.38;2113537;28;19934;-56
2023/01/20 00:53:00;;;;;;;;;;;;;;;14.60;50.69;101071.81;2114127;28;19928;-56
2023/01/20 00:54:02;;;;;;;;;;;;;;;14.60;51.06;101071.81;2114437;28;20334;-55
2023/01/20 00:55:04;;;;;;;;;;;;;;;14.59;50.78;101064.81;2114095;28;19928;-55
2023/01/20 00:56:07;;;;;;;;;;;;;;;14.59;50.96;101065.59;2114600;28;19932;-56
2023/01/20 00:57:10;;;;;;;;;;;;;;;14.59;50.73;101064.81;2112282;28;20246;-56
2023/01/20 00:58:12;;;;;;;;;;;;;;;14.59;50.79;101071.03;2113808;27;19934;-56
2023/01/20 00:59:15;;;;;;;;;;;;;;;14.59;50.74;101072.94;2116382;27;20313;-56
2023/01/20 01:00:17;;;;;;;;;;;;;;;14.59;51.10;101076.47;2116559;27;19984;-55
2023/01/20 01:01:19;;;;;;;;;;;;;;;14.58;50.75;101071.38;2116072;27;19931;-56
2023/01/20 01:02:21;;;;;;;;;;;;;;;14.59;50.82;101075.66;2115892;27;19931;-56
2023/01/20 01:03:26;;;;;;;;;;;;;;;14.59;50.91;101075.66;2115593;27;20900;-55
2023/01/20 01:04:29;;;;;;;;;;;;;;;14.59;51.01;101075.66;2115027;27;19928;-55
2023/01/20 01:05:32;;;;;;;;;;;;;;;14.58;51.26;101082.25;2116221;27;19939;-57
2023/01/20 01:06:35;;;;;;;;;;;;;;;14.58;50.97;101079.53;2116216;27;20398;-56
2023/01/20 01:07:37;;;;;;;;;;;;;;;14.58;51.05;101082.25;2115577;27;19931;-56
2023/01/20 01:08:39;;;;;;;;;;;;;;;14.58;50.68;101083.06;2115263;27;19927;-56
2023/01/20 01:09:41;;;;;;;;;;;;;;;14.58;51.14;101082.25;2115907;27;19927;-56
2023/01/20 01:10:43;;;;;;;;;;;;;;;14.58;51.13;101084.97;2116751;27;19928;-56
2023/01/20 01:11:45;;;;;;;;;;;;;;;14.56;50.77;101079.91;2115533;27;19927;-57
2023/01/20 01:12:47;;;;;;;;;;;;;;;14.57;50.81;101088.84;2115524;27;19927;-56
2023/01/20 01:13:50;;;;;;;;;;;;;;;14.57;50.98;101088.84;2115710;27;19935;-55
2023/01/20 01:14:51;;;;;;;;;;;;;;;14.58;50.85;101090.41;2115537;27;19931;-57
2023/01/20 01:15:54;;;;;;;;;;;;;;;14.57;50.86;101088.84;2116018;27;19935;-56
2023/01/20 01:16:56;;;;;;;;;;;;;;;14.57;50.82;101091.56;2114922;27;20236;-56
2023/01/20 01:17:59;;;;;;;;;;;;;;;14.57;50.73;101088.84;2116073;27;19935;-55
2023/01/20 01:19:01;;;;;;;;;;;;;;;14.57;51.07;101088.84;2115590;27;19928;-55
2023/01/20 01:20:04;;;;;;;;;;;;;;;14.57;50.77;101097.00;2117040;27;19928;-56
2023/01/20 01:21:06;;;;;;;;;;;;;;;14.56;50.66;101093.50;2116911;27;20375;-56
2023/01/20 01:22:10;;;;;;;;;;;;;;;14.56;50.69;101104.34;2114947;27;19928;-55
2023/01/20 01:23:12;;;;;;;;;;;;;;;14.56;50.79;101098.94;2115206;27;19932;-56
2023/01/20 01:24:14;;;;;;;;;;;;;;;14.56;50.90;101104.34;2116971;27;19981;-56
2023/01/20 01:25:16;;;;;;;;;;;;;;;14.56;50.91;101109.00;2115924;27;20323;-56
2023/01/20 01:26:19;;;;;;;;;;;;;;;14.56;50.91;101109.00;2116430;27;19934;-55
2023/01/20 01:27:20;;;;;;;;;;;;;;;14.55;51.17;101108.22;2116217;27;19927;-56
2023/01/20 01:28:23;;;;;;;;;;;;;;;14.55;50.98;101104.72;2115368;27;19934;-56
2023/01/20 01:29:24;;;;;;;;;;;;;;;14.55;51.00;101108.22;2116941;27;19942;-56
2023/01/20 01:30:27;;;;;;;;;;;;;;;14.56;51.09;101101.63;2115845;27;19923;-55
2023/01/20 01:31:28;;;;;;;;;;;;;;;14.55;50.69;101110.16;2116112;27;19956;-56
2023/01/20 01:32:31;;;;;;;;;;;;;;;14.55;51.10;101115.59;2115899;27;19928;-56
2023/01/20 01:33:33;;;;;;;;;;;;;;;14.53;50.97;101105.09;2114826;27;19928;-59
2023/01/20 01:34:36;;;;;;;;;;;;;;;14.54;50.85;101108.59;2115998;27;19928;-57
2023/01/20 01:35:37;;;;;;;;;;;;;;;14.55;51.00;101110.16;2116178;27;19986;-54
2023/01/20 01:36:40;;;;;;;;;;;;;;;14.55;50.85;101107.44;2115248;27;19927;-56
2023/01/20 01:37:43;;;;;;;;;;;;;;;14.54;51.20;101103.16;2115465;27;21091;-56
2023/01/20 01:38:45;;;;;;;;;;;;;;;14.54;51.08;101111.31;2116135;27;20275;-56
2023/01/20 01:39:59;;;;;;;;;;;;;;;14.54;50.75;101114.03;2115526;27;19927;-56
2023/01/20 01:41:01;;;;;;;;;;;;;;;14.53;51.10;101115.94;2116300;27;20021;-56
2023/01/20 01:42:08;;;;;;;;;;;;;;;14.53;50.83;101118.66;2115954;27;20474;-56
2023/01/20 01:43:20;;;;;;;;;;;;;;;14.54;51.01;101122.19;2115077;27;19935;-56
2023/01/20 01:44:24;;;;;;;;;;;;;;;14.53;51.06;101112.44;2114953;27;20393;-56
2023/01/20 01:45:28;;;;;;;;;;;;;;;14.53;51.01;101126.03;2115570;27;19923;-56
2023/01/20 01:46:30;;;;;;;;;;;;;;;14.53;50.77;101118.66;2114831;27;20014;-56
2023/01/20 01:47:33;;;;;;;;;;;;;;;14.53;50.91;101115.16;2116131;27;19932;-56
2023/01/20 01:48:36;;;;;;;;;;;;;;;14.53;51.17;101121.38;2113795;27;20294;-56
2023/01/20 01:49:38;;;;;;;;;;;;;;;14.53;51.06;101126.03;2115424;27;19932;-56
2023/01/20 01:50:44;;;;;;;;;;;;;;;14.53;51.10;101126.03;2114944;27;20353;-56
2023/01/20 01:51:50;;;;;;;;;;;;;;;14.52;51.03;101119.81;2106669;28;19935;-55
2023/01/20 01:52:54;;;;;;;;;;;;;;;14.52;51.00;101124.47;2107029;27;19932;-56
2023/01/20 01:54:00;;;;;;;;;;;;;;;14.51;51.08;101122.88;2114486;27;19928;-55
2023/01/20 01:55:02;;;;;;;;;;;;;;;14.53;50.86;101134.19;2113741;27;20392;-55
2023/01/20 01:56:04;;;;;;;;;;;;;;;14.52;51.04;101125.25;2116255;27;19939;-56
2023/01/20 01:57:06;;;;;;;;;;;;;;;14.52;50.67;101125.25;2117379;27;19923;-55
2023/01/20 01:58:11;;;;;;;;;;;;;;;14.52;50.85;101119.03;2115692;27;19943;-55
2023/01/20 01:59:14;;;;;;;;;;;;;;;14.52;50.66;101124.47;2115777;27;19927;-56
2023/01/20 02:00:17;;;;;;;;;;;;;;;14.52;50.75;101132.63;2114556;27;19928;-56
2023/01/20 02:01:20;;;;;;;;;;;;;;;14.50;50.76;101119.38;2115377;27;19942;-56
2023/01/20 02:02:22;;;;;;;;;;;;;;;14.51;51.04;101122.88;2116306;27;19931;-55
2023/01/20 02:03:28;;;;;;;;;;;;;;;14.49;50.94;101131.38;2115059;27;19935;-56
2023/01/20 02:04:32;;;;;;;;;;;;;;;14.51;51.07;101125.59;2115863;27;19923;-55
2023/01/20 02:05:36;;;;;;;;;;;;;;;14.50;50.97;101127.53;2114225;27;19939;-55
2023/01/20 02:06:40;;;;;;;;;;;;;;;14.51;51.23;101128.31;2115241;27;19967;-55
2023/01/20 02:07:44;;;;;;;;;;;;;;;14.50;51.08;101132.97;2115452;27;19927;-55
2023/01/20 02:08:47;;;;;;;;;;;;;;;14.50;51.17;101134.91;2115655;27;19934;-56
2023/01/20 02:09:50;;;;;;;;;;;;;;;14.50;51.03;101132.97;2114776;27;19927;-55
2023/01/20 02:10:51;;;;;;;;;;;;;;;14.49;51.14;101130.63;2115866;27;19938;-56
2023/01/20 02:11:55;;;;;;;;;;;;;;;14.49;51.04;101133.34;2114842;27;19935;-56
2023/01/20 02:12:58;;;;;;;;;;;;;;;14.49;51.24;101130.63;2114974;27;19932;-57
2023/01/20 02:14:01;;;;;;;;;;;;;;;14.49;51.22;101127.91;2115851;27;19928;-55
2023/01/20 02:15:03;;;;;;;;;;;;;;;14.49;51.13;101134.09;2114153;27;19927;-56
2023/01/20 02:16:10;;;;;;;;;;;;;;;14.49;51.08;101133.34;2115266;27;20013;-56
2023/01/20 02:17:17;;;;;;;;;;;;;;;14.50;51.16;101132.19;2115644;27;20053;-57
2023/01/20 02:18:26;;;;;;;;;;;;;;;14.49;51.05;101125.19;2115253;27;19947;-57
2023/01/20 02:19:48;;;;;;;;;;;;;;;14.48;50.86;101129.03;2116266;27;19927;-57
2023/01/20 02:21:07;;;;;;;;;;;;;;;14.47;50.96;101130.19;2115206;27;19980;-55
2023/01/20 02:22:17;;;;;;;;;;;;;;;14.48;50.83;101132.53;2116534;27;19938;-56
2023/01/20 02:23:30;;;;;;;;;;;;;;;14.47;50.96;101130.97;2115131;27;19939;-56
2023/01/20 02:24:53;;;;;;;;;;;;;;;14.47;51.16;101130.97;2115264;27;19988;-56
2023/01/20 02:26:25;;;;;;;;;;;;;;;14.47;50.92;101130.19;2115143;27;19932;-56
2023/01/20 02:27:37;;;;;;;;;;;;;;;14.47;51.11;101132.91;2088961;28;19929;-55
2023/01/20 02:28:53;;;;;;;;;;;;;;;14.46;50.82;101131.34;2088730;28;20379;-56
2023/01/20 02:30:11;;;;;;;;;;;;;;;14.47;50.96;101135.63;2100581;27;19923;-56
2023/01/20 02:31:24;;;;;;;;;;;;;;;14.47;50.95;101132.91;2115393;27;20144;-56
2023/01/20 02:32:31;;;;;;;;;;;;;;;14.47;51.13;101132.91;2115616;27;19939;-55
2023/01/20 02:33:38;;;;;;;;;;;;;;;14.46;50.84;101132.09;2106120;28;19932;-56
2023/01/20 02:34:42;;;;;;;;;;;;;;;14.46;51.11;101131.34;2106141;27;19928;-55
2023/01/20 02:35:46;;;;;;;;;;;;;;;14.46;50.95;101134.81;2114406;27;19941;-55
2023/01/20 02:36:50;;;;;;;;;;;;;;;14.46;51.03;101142.97;2116856;27;19923;-55
2023/01/20 02:37:58;;;;;;;;;;;;;;;14.46;51.17;101142.22;2115272;27;19931;-56
2023/01/20 02:39:02;;;;;;;;;;;;;;;14.45;51.09;101133.25;2115371;27;19953;-56
2023/01/20 02:40:12;;;;;;;;;;;;;;;14.46;50.84;101136.78;2115508;27;19927;-56
2023/01/20 02:41:16;;;;;;;;;;;;;;;14.45;50.92;101137.91;2114608;27;20042;-56
2023/01/20 02:42:22;;;;;;;;;;;;;;;14.46;51.28;101136.78;2115063;27;19927;-56
2023/01/20 02:43:31;;;;;;;;;;;;;;;14.46;51.15;101144.91;2116150;27;19928;-56
2023/01/20 02:44:40;;;;;;;;;;;;;;;14.45;51.24;101132.47;2116314;27;19932;-56
2023/01/20 02:45:46;;;;;;;;;;;;;;;14.45;50.87;101135.19;2115607;27;19923;-55
2023/01/20 02:46:52;;;;;;;;;;;;;;;14.46;50.98;101139.50;2114830;27;19980;-55
2023/01/20 02:47:57;;;;;;;;;;;;;;;14.45;50.97;101132.47;2115407;27;20910;-56
2023/01/20 02:49:05;;;;;;;;;;;;;;;14.45;50.71;101124.31;2114380;27;19931;-55
2023/01/20 02:50:08;;;;;;;;;;;;;;;14.45;50.92;101132.47;2114523;27;19927;-55
2023/01/20 02:51:12;;;;;;;;;;;;;;;14.45;50.93;101137.91;2114898;27;19927;-55
2023/01/20 02:52:15;;;;;;;;;;;;;;;14.44;51.07;101139.06;2114382;27;20321;-56
2023/01/20 02:53:20;;;;;;;;;;;;;;;14.44;50.64;101139.06;2114491;27;19923;-55
2023/01/20 02:54:24;;;;;;;;;;;;;;;14.44;51.09;101139.84;2114792;27;19935;-56
2023/01/20 02:55:33;;;;;;;;;;;;;;;14.44;51.09;101145.28;2113541;27;19932;-56
2023/01/20 02:56:35;;;;;;;;;;;;;;;14.44;51.15;101139.06;2115467;27;19924;-55
2023/01/20 02:57:40;;;;;;;;;;;;;;;14.44;50.74;101139.06;2113253;27;19932;-56
2023/01/20 02:58:46;;;;;;;;;;;;;;;14.44;51.13;101144.50;2114960;27;19927;-55
2023/01/20 02:59:52;;;;;;;;;;;;;;;14.44;51.07;101133.63;2113737;27;20316;-55
2023/01/20 03:00:56;;;;;;;;;;;;;;;14.44;51.15;101144.50;2114154;27;19928;-56
2023/01/20 03:02:02;;;;;;;;;;;;;;;14.44;51.26;101144.50;2115221;27;20397;-57
2023/01/20 03:03:07;;;;;;;;;;;;;;;14.42;51.01;101144.06;2116062;27;19987;-56
2023/01/20 03:04:13;;;;;;;;;;;;;;;14.43;50.89;101137.50;2115125;27;20636;-55
2023/01/20 03:05:18;;;;;;;;;;;;;;;14.43;51.31;101145.66;2113549;27;19931;-55
2023/01/20 03:06:22;;;;;;;;;;;;;;;14.43;51.19;101146.41;2114912;27;19931;-56
2023/01/20 03:07:26;;;;;;;;;;;;;;;14.43;51.28;101140.97;2114881;27;19932;-55
2023/01/20 03:08:30;;;;;;;;;;;;;;;14.43;50.93;101148.34;2115229;27;20700;-56
2023/01/20 03:09:36;;;;;;;;;;;;;;;14.43;50.91;101138.25;2114362;27;20057;-57
2023/01/20 03:10:39;;;;;;;;;;;;;;;14.42;50.91;101146.78;2114060;27;19927;-56
2023/01/20 03:11:45;;;;;;;;;;;;;;;14.43;50.85;101145.66;2115340;27;19934;-56
2023/01/20 03:12:49;;;;;;;;;;;;;;;14.43;51.16;101148.34;2114777;27;20366;-56
2023/01/20 03:13:55;;;;;;;;;;;;;;;14.43;51.17;101148.34;2113752;27;19931;-56
2023/01/20 03:14:56;;;;;;;;;;;;;;;14.43;51.16;101156.50;2115255;27;19927;-57
2023/01/20 03:16:02;;;;;;;;;;;;;;;14.42;51.36;101150.28;2114791;27;19934;-55
2023/01/20 03:17:04;;;;;;;;;;;;;;;14.42;50.81;101152.19;2115022;27;19927;-56
2023/01/20 03:18:08;;;;;;;;;;;;;;;14.42;50.97;101149.47;2114844;27;19927;-55
2023/01/20 03:19:09;;;;;;;;;;;;;;;14.42;51.22;101154.91;2114830;27;19951;-56
2023/01/20 03:20:12;;;;;;;;;;;;;;;14.42;51.20;101150.28;2114483;27;19928;-56
2023/01/20 03:21:14;;;;;;;;;;;;;;;14.42;50.76;101146.78;2114108;27;20401;-56
2023/01/20 03:22:17;;;;;;;;;;;;;;;14.41;51.03;101154.13;2114637;27;19928;-55
2023/01/20 03:23:18;;;;;;;;;;;;;;;14.42;51.01;101157.63;2113907;27;20428;-56
2023/01/20 03:24:22;;;;;;;;;;;;;;;14.42;51.15;101149.47;2114792;27;19932;-57
2023/01/20 03:25:24;;;;;;;;;;;;;;;14.41;50.82;101151.41;2114955;27;19927;-55
2023/01/20 03:26:26;;;;;;;;;;;;;;;14.41;50.92;101153.34;2114745;27;19928;-59
2023/01/20 03:27:28;;;;;;;;;;;;;;;14.41;51.02;101159.56;2114620;27;19935;-55
2023/01/20 03:28:31;;;;;;;;;;;;;;;14.41;50.81;101156.06;2115037;27;19932;-55
2023/01/20 03:29:32;;;;;;;;;;;;;;;14.40;51.20;101155.28;2114065;27;20390;-56
2023/01/20 03:30:35;;;;;;;;;;;;;;;14.41;51.24;101158.78;2114173;27;19931;-56
2023/01/20 03:31:38;;;;;;;;;;;;;;;14.40;50.93;101159.91;2114564;27;19927;-57
2023/01/20 03:32:42;;;;;;;;;;;;;;;14.40;51.29;101165.34;2114964;27;19936;-56
2023/01/20 03:33:48;;;;;;;;;;;;;;;14.40;50.87;101159.91;2113905;27;19975;-58
2023/01/20 03:34:49;;;;;;;;;;;;;;;14.40;51.05;101158.00;2116117;27;19924;-57
2023/01/20 03:35:52;;;;;;;;;;;;;;;14.40;51.26;101159.91;2105011;28;20011;-56
2023/01/20 03:36:55;;;;;;;;;;;;;;;14.40;50.87;101165.34;2104863;28;19936;-55
2023/01/20 03:37:57;;;;;;;;;;;;;;;14.40;51.27;101159.91;2114119;27;19935;-55
2023/01/20 03:38:59;;;;;;;;;;;;;;;14.40;51.40;101165.34;2114731;27;20362;-55
2023/01/20 03:40:02;;;;;;;;;;;;;;;14.40;50.94;101168.06;2114214;27;19935;-62
2023/01/20 03:41:10;;;;;;;;;;;;;;;14.41;50.79;101166.94;2114664;27;19935;-61
2023/01/20 03:42:16;;;;;;;;;;;;;;;14.39;50.94;101161.88;2113498;28;20927;-62
2023/01/20 03:43:22;;;;;;;;;;;;;;;14.40;50.80;101162.63;2113760;27;19924;-63
2023/01/20 03:44:30;;;;;;;;;;;;;;;14.40;51.20;101171.56;2114352;27;19927;-62
2023/01/20 03:45:38;;;;;;;;;;;;;;;14.40;50.98;101159.91;2115524;27;19936;-60
2023/01/20 03:46:42;;;;;;;;;;;;;;;14.39;51.13;101163.78;2113727;27;20375;-63
2023/01/20 03:47:50;;;;;;;;;;;;;;;14.38;50.99;101162.22;2114389;27;19935;-62
2023/01/20 03:48:58;;;;;;;;;;;;;;;14.40;51.01;101165.34;2115345;28;20772;-57
2023/01/20 03:50:05;;;;;;;;;;;;;;;14.38;51.15;101168.41;2113890;27;19928;-57
2023/01/20 03:51:11;;;;;;;;;;;;;;;14.39;51.03;101166.50;2115497;27;20389;-56
2023/01/20 03:52:17;;;;;;;;;;;;;;;14.38;51.05;101170.38;2113502;28;19928;-56
2023/01/20 03:53:26;;;;;;;;;;;;;;;14.39;50.78;101174.66;2114892;28;19935;-54
2023/01/20 03:54:30;;;;;;;;;;;;;;;14.39;50.97;101180.09;2114386;27;19923;-55
2023/01/20 03:55:36;;;;;;;;;;;;;;;14.39;50.80;101174.66;2115061;27;19923;-56
2023/01/20 03:56:42;;;;;;;;;;;;;;;14.38;50.76;101173.84;2114446;27;19927;-56
2023/01/20 03:57:49;;;;;;;;;;;;;;;14.38;50.96;101173.09;2114259;28;19942;-55
2023/01/20 03:58:53;;;;;;;;;;;;;;;14.39;51.08;101174.66;2114756;27;19944;-56
2023/01/20 03:59:55;;;;;;;;;;;;;;;14.39;50.91;101174.66;2115503;28;19928;-56
2023/01/20 04:01:00;;;;;;;;;;;;;;;14.38;51.29;101173.09;2113793;28;20017;-55
2023/01/20 04:02:04;;;;;;;;;;;;;;;14.38;51.05;101173.09;2114879;28;20429;-55
2023/01/20 04:03:08;;;;;;;;;;;;;;;14.38;51.04;101167.66;2114849;28;19934;-56
2023/01/20 04:04:14;;;;;;;;;;;;;;;14.37;50.97;101169.56;2114715;28;19942;-54
2023/01/20 04:05:17;;;;;;;;;;;;;;;14.37;50.93;101171.50;2114808;28;19932;-56
2023/01/20 04:06:20;;;;;;;;;;;;;;;14.38;51.33;101173.84;2114647;28;19934;-56
2023/01/20 04:07:24;;;;;;;;;;;;;;;14.38;51.44;101167.66;2115249;28;19927;-55
2023/01/20 04:08:28;;;;;;;;;;;;;;;14.37;50.98;101172.28;2114840;28;19928;-56
2023/01/20 04:09:33;;;;;;;;;;;;;;;14.37;50.97;101174.22;2114924;28;20390;-56
2023/01/20 04:10:36;;;;;;;;;;;;;;;14.36;51.33;101170.72;2114858;28;19932;-56
2023/01/20 04:11:39;;;;;;;;;;;;;;;14.38;51.26;101179.28;2114484;28;19927;-56
2023/01/20 04:12:41;;;;;;;;;;;;;;;14.37;51.20;101174.22;2114358;28;19931;-55
2023/01/20 04:13:43;;;;;;;;;;;;;;;14.37;50.88;101176.94;2113714;28;19927;-56
2023/01/20 04:14:45;;;;;;;;;;;;;;;14.37;51.34;101166.88;2114122;28;19966;-55
2023/01/20 04:15:47;;;;;;;;;;;;;;;14.37;51.28;101176.94;2115082;28;19970;-56
2023/01/20 04:16:50;;;;;;;;;;;;;;;14.36;51.15;101169.94;2113489;28;20001;-56
2023/01/20 04:17:53;;;;;;;;;;;;;;;14.37;51.28;101169.56;2115027;28;20271;-55
2023/01/20 04:18:55;;;;;;;;;;;;;;;14.37;50.97;101174.22;2115351;28;20276;-56
2023/01/20 04:20:00;;;;;;;;;;;;;;;14.37;51.22;101176.94;2112237;28;19972;-55
2023/01/20 04:21:02;;;;;;;;;;;;;;;14.36;51.03;101178.88;2114446;28;19927;-56
2023/01/20 04:22:07;;;;;;;;;;;;;;;14.36;51.17;101181.59;2113883;28;19934;-54
2023/01/20 04:23:13;;;;;;;;;;;;;;;14.36;51.13;101178.88;2115710;28;19928;-55
2023/01/20 04:24:20;;;;;;;;;;;;;;;14.36;51.13;101184.31;2112980;28;19991;-55
2023/01/20 04:25:24;;;;;;;;;;;;;;;14.37;50.83;101182.38;2115084;28;19934;-56
2023/01/20 04:26:26;;;;;;;;;;;;;;;14.36;51.35;101178.09;2113634;28;19936;-55
2023/01/20 04:27:28;;;;;;;;;;;;;;;14.36;51.26;101178.09;2115247;28;20413;-55
2023/01/20 04:28:31;;;;;;;;;;;;;;;14.36;51.19;101183.50;2113504;28;19927;-56
2023/01/20 04:29:32;;;;;;;;;;;;;;;14.36;50.89;101184.31;2114388;28;19939;-57
2023/01/20 04:30:35;;;;;;;;;;;;;;;14.36;51.25;101183.50;2114857;28;19938;-55
2023/01/20 04:31:37;;;;;;;;;;;;;;;14.36;50.99;101181.59;2114325;28;19928;-55
2023/01/20 04:32:39;;;;;;;;;;;;;;;14.36;50.93;101187.03;2113867;28;20018;-55
2023/01/20 04:33:41;;;;;;;;;;;;;;;14.35;50.88;101180.00;2115647;27;20362;-55
2023/01/20 04:34:44;;;;;;;;;;;;;;;14.35;51.20;101188.16;2115894;27;19928;-55
2023/01/20 04:35:47;;;;;;;;;;;;;;;14.35;50.87;101190.88;2116088;27;19942;-56
2023/01/20 04:36:49;;;;;;;;;;;;;;;14.36;51.24;101186.22;2116513;27;19927;-56
2023/01/20 04:37:51;;;;;;;;;;;;;;;14.34;51.11;101194.75;2116074;27;19927;-56
2023/01/20 04:38:53;;;;;;;;;;;;;;;14.35;51.07;101198.25;2116103;27;19927;-56
2023/01/20 04:39:55;;;;;;;;;;;;;;;14.35;51.30;101196.31;2115564;27;19931;-56
2023/01/20 04:40:57;;;;;;;;;;;;;;;14.35;51.29;101200.97;2116842;27;19927;-53
2023/01/20 04:41:59;;;;;;;;;;;;;;;14.35;51.37;101200.97;2116098;27;19934;-54
2023/01/20 04:43:01;;;;;;;;;;;;;;;14.35;51.22;101203.69;2115908;27;19931;-54
2023/01/20 04:44:03;;;;;;;;;;;;;;;14.35;51.00;101198.25;2116157;27;19931;-56
2023/01/20 04:45:06;;;;;;;;;;;;;;;14.35;51.35;101196.31;2116566;27;19924;-56
2023/01/20 04:46:09;;;;;;;;;;;;;;;14.35;51.35;101201.72;2117148;27;19927;-54
2023/01/20 04:47:12;;;;;;;;;;;;;;;14.35;50.88;101200.97;2115945;27;19928;-55
2023/01/20 04:48:13;;;;;;;;;;;;;;;14.35;51.33;101203.69;2116456;27;19927;-56
2023/01/20 04:49:16;;;;;;;;;;;;;;;14.35;51.03;101200.97;2115693;27;19943;-55
2023/01/20 04:50:17;;;;;;;;;;;;;;;14.35;50.96;101207.16;2116010;27;19927;-56
2023/01/20 04:51:21;;;;;;;;;;;;;;;14.34;51.09;101205.59;2116414;27;19927;-56
2023/01/20 04:52:23;;;;;;;;;;;;;;;14.35;51.38;101206.41;2115032;27;20331;-56
2023/01/20 04:53:26;;;;;;;;;;;;;;;14.34;51.03;101199.38;2116233;27;19950;-55
2023/01/20 04:54:27;;;;;;;;;;;;;;;14.35;51.40;101211.84;2115008;27;19935;-55
2023/01/20 04:55:31;;;;;;;;;;;;;;;14.35;51.17;101211.84;2105358;28;19928;-54
2023/01/20 04:56:33;;;;;;;;;;;;;;;14.35;51.40;101207.16;2107499;28;19939;-55
2023/01/20 04:57:35;;;;;;;;;;;;;;;14.35;51.38;101209.13;2116322;27;19970;-55
2023/01/20 04:58:37;;;;;;;;;;;;;;;14.34;50.95;101210.25;2114871;27;19924;-56
2023/01/20 04:59:39;;;;;;;;;;;;;;;14.34;51.33;101204.81;2116848;27;19927;-56
2023/01/20 05:00:41;;;;;;;;;;;;;;;14.34;51.40;101205.59;2116520;27;19948;-55
2023/01/20 05:01:45;;;;;;;;;;;;;;;14.34;51.61;101213.75;2115603;27;19931;-56
2023/01/20 05:02:46;;;;;;;;;;;;;;;14.35;51.47;101201.72;2115624;27;19935;-54
2023/01/20 05:03:49;;;;;;;;;;;;;;;14.34;51.45;101204.81;2115947;27;19988;-55
2023/01/20 05:04:50;;;;;;;;;;;;;;;14.34;51.42;101204.81;2116961;27;19935;-56
2023/01/20 05:05:54;;;;;;;;;;;;;;;14.35;51.13;101211.84;2115438;27;20101;-56
2023/01/20 05:06:57;;;;;;;;;;;;;;;14.35;51.38;101206.41;2114712;27;19951;-56
2023/01/20 05:07:59;;;;;;;;;;;;;;;14.34;51.41;101211.03;2114657;27;20870;-56
2023/01/20 05:09:01;;;;;;;;;;;;;;;14.34;51.38;101210.25;2115498;27;19933;-56
2023/01/20 05:10:04;;;;;;;;;;;;;;;14.33;51.27;101208.69;2116041;27;19977;-57
2023/01/20 05:11:05;;;;;;;;;;;;;;;14.34;51.34;101211.03;2106302;28;20042;-56
2023/01/20 05:12:08;;;;;;;;;;;;;;;14.35;51.48;101214.56;2106839;28;19928;-56
2023/01/20 05:13:10;;;;;;;;;;;;;;;14.35;51.45;101214.56;2115255;27;19935;-56
2023/01/20 05:14:12;;;;;;;;;;;;;;;14.35;51.49;101211.84;2116899;27;20397;-56
2023/01/20 05:15:14;;;;;;;;;;;;;;;14.35;51.20;101214.56;2115402;27;19928;-56
2023/01/20 05:16:22;;;;;;;;;;;;;;;14.35;51.09;101217.28;2116415;27;19971;-57
2023/01/20 05:17:24;;;;;;;;;;;;;;;14.35;51.10;101222.69;2115946;27;19928;-57
2023/01/20 05:18:26;;;;;;;;;;;;;;;14.35;51.63;101217.28;2115194;27;19949;-57
2023/01/20 05:19:28;;;;;;;;;;;;;;;14.34;51.50;101221.91;2117131;27;19934;-57
2023/01/20 05:20:30;;;;;;;;;;;;;;;14.35;51.24;101222.69;2115919;27;19923;-56
2023/01/20 05:21:32;;;;;;;;;;;;;;;14.35;51.51;101217.28;2114324;27;19931;-56
2023/01/20 05:22:36;;;;;;;;;;;;;;;14.35;51.77;101212.59;2116637;27;19997;-56
2023/01/20 05:23:38;;;;;;;;;;;;;;;14.35;51.47;101219.97;2116013;27;19981;-57
2023/01/20 05:24:40;;;;;;;;;;;;;;;14.35;51.57;101217.28;2115122;27;19927;-57
2023/01/20 05:25:48;;;;;;;;;;;;;;;14.34;51.23;101210.25;2116071;27;19927;-57
2023/01/20 05:26:50;;;;;;;;;;;;;;;14.35;51.17;101211.84;2116730;27;19947;-57
2023/01/20 05:27:52;;;;;;;;;;;;;;;14.34;51.46;101216.47;2115192;27;20391;-54